Time;durP1;ratioP1;P1;durP2;ratioP2;P2;SDS_P1;SDS_P2;PMS_P1;PMS_P2;Temp;Humidity;BMP_temperature;BMP_pressure;BME280_temperature;BME280_humidity;BME280_pressure;Samples;Min_cycle;Max_cycle;Signal;HPM_P1;HPM_P2
2021/12/07 00:00:25;;;;;;;9.25;5.20;;;2.20;99.90;;;;;;6207461;23;20391;-61
2021/12/07 00:02:51;;;;;;;8.30;4.05;;;2.20;99.90;;;;;;6210324;23;20016;-61
2021/12/07 00:05:17;;;;;;;8.18;4.07;;;2.20;99.90;;;;;;6210076;23;20607;-61
2021/12/07 00:07:44;;;;;;;7.85;4.45;;;2.20;99.90;;;;;;6209229;23;20039;-61
2021/12/07 00:10:11;;;;;;;7.40;3.85;;;2.30;99.90;;;;;;6209938;23;20013;-61
2021/12/07 00:12:39;;;;;;;7.20;4.28;;;2.30;99.90;;;;;;6209048;23;20339;-61
2021/12/07 00:15:07;;;;;;;9.98;4.82;;;2.40;99.90;;;;;;6209285;23;20012;-62
2021/12/07 00:17:33;;;;;;;7.88;4.28;;;2.30;99.90;;;;;;6209062;23;20036;-61
2021/12/07 00:20:00;;;;;;;8.55;4.32;;;2.30;99.90;;;;;;6209893;23;20001;-61
2021/12/07 00:22:26;;;;;;;9.50;5.38;;;2.40;99.90;;;;;;6209212;23;20008;-61
2021/12/07 00:24:52;;;;;;;10.68;4.90;;;2.30;99.90;;;;;;6210259;23;20005;-63
2021/12/07 00:27:18;;;;;;;7.45;4.47;;;2.40;99.90;;;;;;6209667;23;20016;-61
2021/12/07 00:29:44;;;;;;;9.35;4.28;;;2.30;99.90;;;;;;6208696;23;20012;-61
2021/12/07 00:32:31;;;;;;;10.95;5.05;;;2.40;99.90;;;;;;6210379;23;20040;-61
2021/12/07 00:37:31;;;;;;;8.80;4.60;;;2.50;99.90;;;;;;6210417;23;20016;-61
2021/12/07 00:39:58;;;;;;;10.60;5.70;;;2.50;99.90;;;;;;6209633;23;20316;-62
2021/12/07 00:42:24;;;;;;;11.52;5.57;;;2.50;99.90;;;;;;6208030;23;20451;-62
2021/12/07 00:44:49;;;;;;;10.93;5.38;;;2.50;99.90;;;;;;6209939;23;20012;-61
2021/12/07 00:47:16;;;;;;;10.43;5.30;;;2.50;99.90;;;;;;6209749;23;20066;-62
2021/12/07 00:49:42;;;;;;;11.52;5.63;;;2.50;99.90;;;;;;6208495;23;20475;-63
2021/12/07 00:52:08;;;;;;;9.30;5.18;;;2.60;99.90;;;;;;6209942;23;20019;-61
2021/12/07 00:54:34;;;;;;;11.30;5.95;;;2.70;99.90;;;;;;6208095;23;20059;-61
2021/12/07 00:57:02;;;;;;;11.05;5.57;;;2.60;99.90;;;;;;6207859;23;20017;-61
2021/12/07 00:59:28;;;;;;;10.20;5.45;;;2.80;99.90;;;;;;6207270;23;20009;-61
2021/12/07 01:01:54;;;;;;;10.82;6.10;;;2.80;99.90;;;;;;6211577;23;20009;-61
2021/12/07 01:04:19;;;;;;;10.70;6.03;;;2.80;99.90;;;;;;6211597;23;20083;-61
2021/12/07 01:07:06;;;;;;;9.40;5.28;;;2.80;99.90;;;;;;6209838;23;20023;-61
2021/12/07 01:26:05;;;;;;;13.95;6.18;;;2.70;99.90;;;;;;6210009;23;20059;-61
2021/12/07 01:28:37;;;;;;;12.35;6.13;;;2.70;99.90;;;;;;6210768;23;20005;-61
2021/12/07 01:33:57;;;;;;;13.73;5.10;;;2.70;99.90;;;;;;6210540;23;20052;-61
2021/12/07 01:47:20;;;;;;;21.52;3.78;;;3.00;99.90;;;;;;6197681;23;20077;-61
2021/12/07 02:00:38;;;;;;;18.52;2.58;;;4.00;99.90;;;;;;6210125;23;20043;-61
2021/12/07 02:03:04;;;;;;;21.55;3.47;;;4.10;99.90;;;;;;6210941;23;20098;-61
2021/12/07 02:05:30;;;;;;;22.27;2.83;;;4.10;99.90;;;;;;6209416;23;20008;-60
2021/12/07 02:07:56;;;;;;;14.75;1.70;;;4.00;99.90;;;;;;6211476;23;20015;-62
2021/12/07 02:10:25;;;;;;;19.88;2.03;;;3.90;99.90;;;;;;6211236;23;20036;-61
2021/12/07 02:12:55;;;;;;;12.32;1.73;;;3.90;99.90;;;;;;6210073;23;20089;-60
2021/12/07 02:15:24;;;;;;;17.37;1.73;;;3.90;99.90;;;;;;6208727;23;20012;-62
2021/12/07 02:17:51;;;;;;;15.70;1.52;;;3.90;99.90;;;;;;6209115;23;20016;-61
2021/12/07 02:20:18;;;;;;;15.60;1.98;;;3.90;99.90;;;;;;6210996;23;20051;-62
2021/12/07 02:22:45;;;;;;;12.48;1.95;;;3.80;99.90;;;;;;6208947;23;20391;-61
2021/12/07 02:25:13;;;;;;;16.23;1.25;;;3.80;99.90;;;;;;6211141;23;20012;-61
2021/12/07 02:27:40;;;;;;;5.57;0.90;;;3.80;99.90;;;;;;6208549;23;20004;-60
2021/12/07 02:30:11;;;;;;;8.40;1.30;;;4.00;99.90;;;;;;6209619;23;20100;-61
2021/12/07 02:32:38;;;;;;;9.43;1.40;;;4.10;99.90;;;;;;6208478;23;20383;-61
2021/12/07 02:35:05;;;;;;;4.35;0.80;;;4.20;99.90;;;;;;6210783;23;20011;-61
2021/12/07 02:37:33;;;;;;;8.43;1.00;;;4.30;99.90;;;;;;6209871;23;20091;-61
2021/12/07 02:40:00;;;;;;;6.80;1.13;;;4.40;99.90;;;;;;6211065;23;20439;-64
2021/12/07 02:42:27;;;;;;;7.25;0.52;;;4.40;99.90;;;;;;6209897;23;20016;-61
2021/12/07 02:44:53;;;;;;;6.05;1.00;;;4.50;99.90;;;;;;6210656;23;20104;-61
2021/12/07 02:47:19;;;;;;;6.03;0.45;;;4.60;99.90;;;;;;6210680;23;20083;-61
2021/12/07 02:49:45;;;;;;;5.13;0.55;;;4.70;99.90;;;;;;6210011;23;20501;-61
2021/12/07 02:52:12;;;;;;;5.63;1.00;;;4.80;99.90;;;;;;6210550;23;20017;-61
2021/12/07 02:54:44;;;;;;;3.63;0.30;;;4.70;99.90;;;;;;6209756;23;20012;-61
2021/12/07 02:57:14;;;;;;;3.03;0.80;;;4.70;99.90;;;;;;6208835;23;20390;-61
2021/12/07 02:59:42;;;;;;;3.40;0.57;;;4.70;99.90;;;;;;6210132;23;20013;-61
2021/12/07 03:02:09;;;;;;;3.42;0.52;;;4.50;99.90;;;;;;6209065;23;20016;-61
2021/12/07 03:04:42;;;;;;;2.83;0.80;;;4.30;99.90;;;;;;6209498;23;20025;-62
2021/12/07 03:07:38;;;;;;;4.38;1.17;;;4.20;99.90;;;;;;6210564;23;20037;-62
2021/12/07 03:26:29;;;;;;;2.45;0.60;;;3.60;99.90;;;;;;6209367;23;20036;-61
2021/12/07 03:28:58;;;;;;;6.13;0.82;;;3.60;99.90;;;;;;6210627;23;20084;-63
2021/12/07 03:31:27;;;;;;;4.47;0.55;;;3.60;99.90;;;;;;6210239;23;20062;-62
2021/12/07 03:33:54;;;;;;;4.18;0.70;;;3.50;99.90;;;;;;6207800;23;20439;-62
2021/12/07 03:36:20;;;;;;;3.58;0.30;;;3.50;99.90;;;;;;6209893;23;20017;-61
2021/12/07 03:38:46;;;;;;;10.23;0.90;;;3.40;99.90;;;;;;6207908;23;20044;-60
2021/12/07 03:41:12;;;;;;;4.50;0.43;;;3.40;99.90;;;;;;6210268;23;20012;-61
2021/12/07 03:43:39;;;;;;;2.80;0.70;;;3.30;99.90;;;;;;6209621;23;20081;-61
2021/12/07 03:46:05;;;;;;;3.58;0.90;;;3.30;99.90;;;;;;6210306;23;20076;-61
2021/12/07 03:48:30;;;;;;;6.05;1.05;;;3.20;99.90;;;;;;6208587;23;20020;-61
2021/12/07 03:50:56;;;;;;;2.70;0.63;;;3.20;99.90;;;;;;6210028;23;20020;-60
2021/12/07 03:53:22;;;;;;;8.52;1.40;;;3.20;99.90;;;;;;6210418;23;20359;-61
2021/12/07 03:55:48;;;;;;;3.72;0.98;;;3.20;99.90;;;;;;6209000;23;20028;-61
2021/12/07 03:58:13;;;;;;;10.60;1.33;;;3.20;99.90;;;;;;6208234;23;20013;-61
2021/12/07 04:00:42;;;;;;;8.30;1.30;;;3.10;99.90;;;;;;6209139;23;20656;-62
2021/12/07 04:03:11;;;;;;;9.80;2.17;;;3.20;99.90;;;;;;6209946;23;20095;-62
2021/12/07 04:05:45;;;;;;;10.35;1.40;;;3.20;99.90;;;;;;6208614;23;20009;-60
2021/12/07 04:08:24;;;;;;;11.63;1.25;;;3.10;99.90;;;;;;6210259;23;20348;-61
2021/12/07 04:10:50;;;;;;;4.40;0.70;;;3.10;99.90;;;;;;6209207;23;20009;-61
2021/12/07 04:13:16;;;;;;;5.95;1.60;;;3.10;99.90;;;;;;6210063;23;20521;-61
2021/12/07 04:15:42;;;;;;;6.03;1.25;;;3.00;99.90;;;;;;6208644;23;20009;-62
2021/12/07 04:18:09;;;;;;;13.10;2.55;;;3.00;99.90;;;;;;6210315;23;20334;-61
2021/12/07 04:20:36;;;;;;;10.57;1.35;;;3.00;99.90;;;;;;6208939;23;20019;-62
2021/12/07 04:23:02;;;;;;;11.32;1.55;;;3.00;99.90;;;;;;6209003;23;20407;-62
2021/12/07 04:25:28;;;;;;;5.93;0.82;;;2.90;99.90;;;;;;6209356;23;20041;-62
2021/12/07 04:27:54;;;;;;;11.27;1.50;;;2.90;99.90;;;;;;6209734;23;20019;-61
2021/12/07 04:30:26;;;;;;;7.43;0.88;;;2.90;99.90;;;;;;6210270;23;20016;-61
2021/12/07 04:32:53;;;;;;;11.63;1.50;;;2.90;99.90;;;;;;6207991;23;20091;-63
2021/12/07 04:35:20;;;;;;;9.07;2.20;;;2.90;99.90;;;;;;6210636;23;20020;-61
2021/12/07 04:37:46;;;;;;;11.15;1.52;;;2.80;99.90;;;;;;6207519;23;20093;-61
2021/12/07 04:40:15;;;;;;;8.32;1.58;;;2.80;99.90;;;;;;6212331;23;20386;-62
2021/12/07 04:42:42;;;;;;;14.63;1.20;;;2.80;99.90;;;;;;6210980;23;20298;-60
2021/12/07 04:45:12;;;;;;;6.20;0.90;;;2.70;99.90;;;;;;6211782;23;20435;-61
2021/12/07 04:47:55;;;;;;;6.93;2.13;;;2.70;99.90;;;;;;6209124;23;20008;-61
2021/12/07 04:57:35;;;;;;;6.00;1.33;;;2.70;99.90;;;;;;6211086;23;20577;-61
2021/12/07 04:58:48;;;;;;;9.65;1.65;;;2.60;99.90;;;;;;6210752;23;20055;-61
2021/12/07 05:01:14;;;;;;;6.55;1.20;;;2.60;99.90;;;;;;6211311;23;20016;-62
2021/12/07 05:03:41;;;;;;;8.93;1.15;;;2.50;99.90;;;;;;6210206;23;20013;-62
2021/12/07 05:06:09;;;;;;;7.78;1.40;;;2.50;99.90;;;;;;6211447;23;20009;-60
2021/12/07 05:08:41;;;;;;;11.40;1.00;;;2.50;99.90;;;;;;6210703;23;20008;-61
2021/12/07 05:13:50;;;;;;;7.10;0.85;;;2.40;99.90;;;;;;6211074;23;20091;-61
2021/12/07 05:23:53;;;;;;;7.50;1.15;;;2.40;99.90;;;;;;6211467;23;20013;-61
2021/12/07 05:24:47;;;;;;;6.43;0.70;;;2.40;99.90;;;;;;6210816;23;20016;-61
2021/12/07 05:37:59;;;;;;;2.88;0.80;;;2.40;99.90;;;;;;6214360;23;20004;-61
2021/12/07 05:40:26;;;;;;;9.05;1.23;;;2.40;99.90;;;;;;6211071;23;20059;-61
2021/12/07 05:42:52;;;;;;;5.30;1.10;;;2.40;99.90;;;;;;6210662;23;20403;-61
2021/12/07 05:45:21;;;;;;;5.15;1.70;;;2.40;99.90;;;;;;6211052;23;20055;-61
2021/12/07 05:47:48;;;;;;;8.07;1.52;;;2.30;99.90;;;;;;6209563;23;20000;-61
2021/12/07 05:50:17;;;;;;;9.90;1.40;;;2.30;99.90;;;;;;6210942;23;20096;-61
2021/12/07 05:52:43;;;;;;;8.73;0.88;;;2.30;99.90;;;;;;6209950;23;20019;-61
2021/12/07 05:55:09;;;;;;;4.35;0.75;;;2.30;99.90;;;;;;6211029;23;20009;-61
2021/12/07 05:57:35;;;;;;;11.35;2.88;;;2.30;99.90;;;;;;6209963;23;20651;-61
2021/12/07 06:00:01;;;;;;;6.35;0.93;;;2.30;99.90;;;;;;6210713;23;20093;-61
2021/12/07 06:02:28;;;;;;;11.45;1.75;;;2.30;99.90;;;;;;6207950;23;20013;-61
2021/12/07 06:04:54;;;;;;;10.98;1.20;;;2.30;99.90;;;;;;6201020;23;20017;-61
2021/12/07 06:07:19;;;;;;;8.20;1.77;;;2.40;99.90;;;;;;6207167;23;20394;-61
2021/12/07 06:09:45;;;;;;;3.58;0.85;;;2.30;99.90;;;;;;6206689;23;20008;-61
2021/12/07 06:12:10;;;;;;;12.50;1.90;;;2.40;99.90;;;;;;6207835;23;20091;-61
2021/12/07 06:14:42;;;;;;;13.40;1.30;;;2.40;99.90;;;;;;6205361;23;20096;-61
2021/12/07 06:17:08;;;;;;;14.02;1.42;;;2.40;99.90;;;;;;6205510;23;20032;-61
2021/12/07 06:19:34;;;;;;;9.50;1.63;;;2.30;99.90;;;;;;6206279;23;20023;-60
2021/12/07 06:21:59;;;;;;;15.98;2.25;;;2.30;99.90;;;;;;6208222;23;20062;-61
2021/12/07 06:24:25;;;;;;;11.65;2.30;;;2.30;99.90;;;;;;6208256;23;20035;-61
2021/12/07 06:26:51;;;;;;;6.65;1.55;;;2.30;99.90;;;;;;6206481;23;20021;-61
2021/12/07 06:29:17;;;;;;;9.18;1.50;;;2.30;99.90;;;;;;6207655;23;20020;-61
2021/12/07 06:31:43;;;;;;;6.30;1.42;;;2.30;99.90;;;;;;6206700;23;20015;-61
2021/12/07 06:34:12;;;;;;;7.63;1.58;;;2.30;99.90;;;;;;6207188;23;20013;-61
2021/12/07 06:36:38;;;;;;;8.13;1.52;;;2.30;99.90;;;;;;6206526;23;20092;-61
2021/12/07 06:39:06;;;;;;;4.60;1.17;;;2.30;99.90;;;;;;6208559;23;20008;-61
2021/12/07 06:41:32;;;;;;;10.52;2.65;;;2.30;99.90;;;;;;6206207;23;20051;-61
2021/12/07 06:43:58;;;;;;;5.43;1.67;;;2.30;99.90;;;;;;6207778;23;20016;-61
2021/12/07 06:46:24;;;;;;;7.07;1.35;;;2.20;99.90;;;;;;6207026;23;20009;-61
2021/12/07 06:48:49;;;;;;;7.65;1.08;;;2.20;99.90;;;;;;6206492;23;20005;-61
2021/12/07 06:51:15;;;;;;;6.82;1.45;;;2.30;99.90;;;;;;6207171;23;20008;-62
2021/12/07 06:53:40;;;;;;;6.95;0.95;;;2.20;99.90;;;;;;6206375;23;20005;-61
2021/12/07 06:56:08;;;;;;;10.35;1.10;;;2.20;99.90;;;;;;6207420;23;20016;-61
2021/12/07 06:58:34;;;;;;;8.93;0.90;;;2.20;99.90;;;;;;6206081;23;20005;-63
2021/12/07 07:01:01;;;;;;;9.00;1.63;;;2.20;99.90;;;;;;6205750;23;20116;-61
2021/12/07 07:03:27;;;;;;;7.03;1.50;;;2.30;99.90;;;;;;6206386;23;20009;-61
2021/12/07 07:05:52;;;;;;;11.02;1.67;;;2.20;99.90;;;;;;6207321;23;20031;-61
2021/12/07 07:08:19;;;;;;;9.65;1.75;;;2.20;99.90;;;;;;6207360;23;20652;-61
2021/12/07 07:10:45;;;;;;;8.60;1.80;;;2.20;99.90;;;;;;6205625;23;20016;-61
2021/12/07 07:13:12;;;;;;;11.50;1.70;;;2.20;99.90;;;;;;6207349;23;20599;-61
2021/12/07 07:15:38;;;;;;;4.63;1.20;;;2.20;99.90;;;;;;6205988;23;20060;-61
2021/12/07 07:18:04;;;;;;;15.27;1.83;;;2.20;99.90;;;;;;6207618;23;20035;-61
2021/12/07 07:20:29;;;;;;;6.80;1.05;;;2.20;99.90;;;;;;6206073;23;20013;-61
2021/12/07 07:22:55;;;;;;;14.50;1.48;;;2.20;99.90;;;;;;6207314;23;20123;-61
2021/12/07 07:25:21;;;;;;;5.40;1.23;;;2.20;99.90;;;;;;6206704;23;20005;-61
2021/12/07 07:27:47;;;;;;;7.78;1.95;;;2.20;99.90;;;;;;6206246;23;20013;-61
2021/12/07 07:30:15;;;;;;;7.40;1.88;;;2.10;99.90;;;;;;6207412;23;20105;-63
2021/12/07 07:32:41;;;;;;;7.38;0.98;;;2.20;99.90;;;;;;6204184;23;20096;-61
2021/12/07 07:35:09;;;;;;;13.02;2.67;;;2.10;99.90;;;;;;6207425;23;20000;-61
2021/12/07 07:37:36;;;;;;;3.88;1.00;;;2.10;99.90;;;;;;6206530;23;20032;-61
2021/12/07 07:40:07;;;;;;;9.80;1.90;;;2.10;99.90;;;;;;6204547;23;20005;-61
2021/12/07 07:42:34;;;;;;;5.90;1.92;;;2.10;99.90;;;;;;6206341;23;20104;-61
2021/12/07 07:45:00;;;;;;;8.68;1.15;;;2.10;99.90;;;;;;6207104;23;20092;-61
2021/12/07 07:47:25;;;;;;;6.57;1.25;;;2.20;99.90;;;;;;6207033;23;20021;-61
2021/12/07 07:49:51;;;;;;;12.63;1.50;;;2.20;99.90;;;;;;6206106;23;20849;-61
2021/12/07 07:52:17;;;;;;;10.25;2.42;;;2.20;99.90;;;;;;6207080;23;20016;-60
2021/12/07 07:54:42;;;;;;;5.63;1.33;;;2.20;99.90;;;;;;6205713;23;20012;-61
2021/12/07 07:57:08;;;;;;;13.93;1.70;;;2.20;99.90;;;;;;6206810;23;20019;-61
2021/12/07 07:59:35;;;;;;;11.35;1.80;;;2.30;99.90;;;;;;6205651;23;20012;-61
2021/12/07 08:02:01;;;;;;;13.95;1.80;;;2.30;99.90;;;;;;6207040;23;20058;-61
2021/12/07 08:04:27;;;;;;;6.47;1.05;;;2.40;99.90;;;;;;6206184;23;20012;-62
2021/12/07 08:06:53;;;;;;;9.55;1.50;;;2.40;99.90;;;;;;6205232;23;20008;-61
2021/12/07 08:09:18;;;;;;;12.20;1.52;;;2.40;99.90;;;;;;6206935;23;20574;-61
2021/12/07 08:11:44;;;;;;;10.73;1.23;;;2.50;99.90;;;;;;6207835;23;20062;-62
2021/12/07 08:14:09;;;;;;;15.23;1.95;;;2.50;99.90;;;;;;6208770;23;20015;-61
2021/12/07 08:16:35;;;;;;;8.98;1.88;;;2.60;99.90;;;;;;6206989;23;20024;-61
2021/12/07 08:19:01;;;;;;;11.90;1.85;;;2.70;99.90;;;;;;6209477;23;20079;-62
2021/12/07 08:21:27;;;;;;;10.77;1.58;;;2.70;99.90;;;;;;6207252;23;20066;-64
2021/12/07 08:23:53;;;;;;;4.90;1.38;;;2.80;99.90;;;;;;6208179;23;20019;-62
2021/12/07 08:26:21;;;;;;;7.15;1.83;;;2.90;99.90;;;;;;6208211;23;20008;-62
2021/12/07 08:28:48;;;;;;;13.27;2.33;;;3.00;99.90;;;;;;6207710;23;20012;-62
2021/12/07 08:31:13;;;;;;;10.50;1.13;;;2.90;99.90;;;;;;6208851;23;20124;-61
2021/12/07 08:33:39;;;;;;;8.15;1.25;;;3.00;99.90;;;;;;6207705;23;20033;-61
2021/12/07 08:36:05;;;;;;;11.82;2.00;;;3.00;99.90;;;;;;6208486;23;20522;-61
2021/12/07 08:38:31;;;;;;;8.80;1.45;;;3.00;99.90;;;;;;6207615;23;20005;-62
2021/12/07 08:40:57;;;;;;;6.72;2.35;;;3.00;99.90;;;;;;6208799;23;20215;-61
2021/12/07 08:43:26;;;;;;;8.45;2.40;;;3.00;99.90;;;;;;6208969;23;20004;-61
2021/12/07 08:45:53;;;;;;;16.60;1.45;;;3.10;99.90;;;;;;6207553;23;20013;-62
2021/12/07 08:48:18;;;;;;;14.82;2.25;;;3.10;99.90;;;;;;6207494;23;20080;-61
2021/12/07 08:50:45;;;;;;;11.15;1.38;;;3.20;99.90;;;;;;6207473;23;20427;-60
2021/12/07 08:53:14;;;;;;;17.73;1.83;;;3.30;99.90;;;;;;6208978;23;20012;-61
2021/12/07 09:01:13;;;;;;;12.27;1.95;;;3.50;99.90;;;;;;6207283;23;20011;-61
2021/12/07 09:03:38;;;;;;;9.57;2.00;;;3.50;99.90;;;;;;6206194;23;20015;-61
2021/12/07 09:06:04;;;;;;;9.27;1.23;;;3.50;99.90;;;;;;6208111;23;20009;-61
2021/12/07 09:08:30;;;;;;;9.52;2.15;;;3.60;99.90;;;;;;6207838;23;20005;-60
2021/12/07 09:10:56;;;;;;;10.00;2.50;;;3.50;99.90;;;;;;6206292;23;20008;-61
2021/12/07 09:13:24;;;;;;;8.02;1.70;;;3.60;99.90;;;;;;6206413;23;20008;-61
2021/12/07 09:15:51;;;;;;;14.95;2.75;;;3.60;99.90;;;;;;6207104;23;20009;-61
2021/12/07 09:18:17;;;;;;;8.07;2.78;;;3.60;99.90;;;;;;6206210;23;20023;-61
2021/12/07 09:20:43;;;;;;;12.57;1.60;;;3.70;99.90;;;;;;6207676;23;20016;-61
2021/12/07 09:23:09;;;;;;;14.10;2.95;;;3.60;99.90;;;;;;6207119;23;20061;-61
2021/12/07 09:25:35;;;;;;;10.68;2.17;;;3.70;99.90;;;;;;6205135;23;20081;-61
2021/12/07 09:28:02;;;;;;;11.43;2.08;;;3.60;99.90;;;;;;6207116;23;20091;-61
2021/12/07 09:30:27;;;;;;;11.50;2.40;;;3.60;99.90;;;;;;6204852;23;20009;-63
2021/12/07 09:32:53;;;;;;;14.07;3.28;;;3.70;99.90;;;;;;6208924;23;20024;-60
2021/12/07 09:35:21;;;;;;;11.93;3.13;;;3.70;99.90;;;;;;6208180;23;20024;-62
2021/12/07 09:37:51;;;;;;;8.88;2.63;;;3.70;99.90;;;;;;6205515;23;20012;-61
2021/12/07 09:40:19;;;;;;;12.70;3.15;;;3.90;99.90;;;;;;6208575;23;20714;-61
2021/12/07 09:42:46;;;;;;;22.33;2.78;;;3.90;99.90;;;;;;6206994;23;20083;-61
2021/12/07 09:45:15;;;;;;;22.30;3.55;;;4.00;99.90;;;;;;6207843;23;20750;-61
2021/12/07 09:47:41;;;;;;;17.02;3.60;;;4.10;99.90;;;;;;6207276;23;20509;-61
2021/12/07 09:50:11;;;;;;;15.27;3.47;;;4.10;99.90;;;;;;6208079;23;20017;-61
2021/12/07 09:52:36;;;;;;;17.42;3.58;;;4.10;99.90;;;;;;6206802;23;20062;-61
2021/12/07 09:55:04;;;;;;;18.35;3.70;;;4.20;99.90;;;;;;6207993;23;20008;-61
2021/12/07 09:57:29;;;;;;;17.00;4.00;;;4.30;99.90;;;;;;6206430;23;20195;-61
2021/12/07 09:59:55;;;;;;;17.52;4.18;;;4.30;99.90;;;;;;6208525;23;20455;-61
2021/12/07 10:02:21;;;;;;;15.48;3.80;;;4.30;99.90;;;;;;6207570;23;20020;-61
2021/12/07 10:04:47;;;;;;;15.05;4.22;;;4.40;99.90;;;;;;6206602;23;20004;-60
2021/12/07 10:07:13;;;;;;;18.88;4.80;;;4.40;99.90;;;;;;6207939;23;20008;-62
2021/12/07 10:09:39;;;;;;;21.63;4.22;;;4.50;99.90;;;;;;6207086;23;20013;-61
2021/12/07 10:12:06;;;;;;;16.15;3.65;;;4.50;99.90;;;;;;6207793;23;20027;-61
2021/12/07 10:14:40;;;;;;;18.60;4.00;;;4.50;99.90;;;;;;6206714;23;20008;-61
2021/12/07 10:17:07;;;;;;;20.17;4.47;;;4.60;99.90;;;;;;6207486;23;20358;-61
2021/12/07 10:19:35;;;;;;;18.15;4.97;;;4.60;99.90;;;;;;6207368;23;20004;-61
2021/12/07 10:22:04;;;;;;;21.58;6.00;;;4.60;99.90;;;;;;6205735;23;20016;-61
2021/12/07 10:24:47;;;;;;;18.17;4.30;;;4.70;99.90;;;;;;6205626;23;20016;-61
2021/12/07 10:27:34;;;;;;;14.18;3.47;;;4.80;99.90;;;;;;6207627;23;20008;-61
2021/12/07 10:30:03;;;;;;;15.95;5.00;;;4.70;99.90;;;;;;6206133;23;20016;-60
2021/12/07 10:32:29;;;;;;;20.02;4.25;;;4.80;99.90;;;;;;6206175;23;20015;-61
2021/12/07 10:34:54;;;;;;;20.63;4.75;;;4.80;99.90;;;;;;6207689;23;20005;-61
2021/12/07 10:37:20;;;;;;;24.67;5.05;;;4.80;99.90;;;;;;6204934;23;20480;-61
2021/12/07 10:39:50;;;;;;;18.80;5.22;;;4.80;99.90;;;;;;6206148;23;20710;-60
2021/12/07 10:42:20;;;;;;;18.42;5.05;;;4.80;99.90;;;;;;6207230;23;20012;-61
2021/12/07 10:44:46;;;;;;;26.60;4.95;;;4.90;99.90;;;;;;6206477;23;20021;-61
2021/12/07 10:47:17;;;;;;;16.95;4.70;;;4.90;99.90;;;;;;6205807;23;20018;-61
2021/12/07 10:49:55;;;;;;;26.73;5.15;;;5.10;99.90;;;;;;6206508;23;20035;-61
2021/12/07 10:52:30;;;;;;;31.27;6.47;;;5.40;99.90;;;;;;6207452;23;20095;-61
2021/12/07 10:55:04;;;;;;;21.17;4.68;;;5.50;99.90;;;;;;6206878;23;20339;-61
2021/12/07 10:57:35;;;;;;;17.33;4.03;;;5.80;99.90;;;;;;6205210;23;20541;-61
2021/12/07 11:00:00;;;;;;;;;;;5.80;99.90;;;;;;6205698;23;20015;-62
2021/12/07 11:02:33;;;;;;;29.13;6.40;;;5.70;99.90;;;;;;6207234;23;19912;-62
2021/12/07 11:05:13;;;;;;;25.95;4.90;;;5.60;99.90;;;;;;5041069;28;20450;-61
2021/12/07 11:07:39;;;;;;;24.38;4.65;;;5.60;99.90;;;;;;5037067;28;20037;-61
2021/12/07 11:10:18;;;;;;;18.48;4.47;;;5.60;99.90;;;;;;5037367;28;20036;-61
2021/12/07 11:12:51;;;;;;;20.30;4.75;;;5.90;99.90;;;;;;5016053;28;20441;-61
2021/12/07 11:15:24;;;;;;;17.83;3.63;;;6.20;99.90;;;;;;5015421;28;20033;-61
2021/12/07 11:17:54;;;;;;;15.98;3.33;;;6.40;99.90;;;;;;5018752;28;20045;-61
2021/12/07 11:20:20;;;;;;;14.15;3.78;;;6.50;99.90;;;;;;5021320;28;20030;-61
2021/12/07 11:22:50;;;;;;;15.25;2.95;;;6.40;99.90;;;;;;5017604;28;20041;-61
2021/12/07 11:31:14;;;;;;;12.38;3.00;;;5.90;99.90;;;;;;5015101;28;20084;-61
2021/12/07 11:33:40;;;;;;;19.45;3.00;;;5.80;99.90;;;;;;5011511;28;20049;-61
2021/12/07 11:36:25;;;;;;;23.58;4.03;;;5.80;99.90;;;;;;5018391;28;20042;-61
2021/12/07 11:38:52;;;;;;;14.50;3.25;;;5.70;99.90;;;;;;5017289;28;20045;-61
2021/12/07 11:41:33;;;;;;;11.85;2.75;;;5.70;99.90;;;;;;5019329;28;20471;-61
2021/12/07 11:44:00;;;;;;;15.75;2.78;;;5.70;99.90;;;;;;5023937;28;20046;-62
2021/12/07 11:46:29;;;;;;;19.80;3.20;;;5.70;99.90;;;;;;5018563;28;20037;-62
2021/12/07 11:49:16;;;;;;;9.80;2.08;;;5.70;99.90;;;;;;5014505;28;20823;-62
2021/12/07 11:51:44;;;;;;;24.00;3.88;;;5.70;99.90;;;;;;5022668;28;20667;-62
2021/12/07 11:54:11;;;;;;;18.25;2.95;;;5.70;99.90;;;;;;5017893;28;20083;-61
2021/12/07 11:56:38;;;;;;;13.50;2.95;;;5.80;99.90;;;;;;5014362;28;20042;-62
2021/12/07 11:59:05;;;;;;;14.82;3.80;;;5.70;99.90;;;;;;5028415;28;20578;-61
2021/12/07 12:01:31;;;;;;;13.48;3.30;;;5.70;99.90;;;;;;5008785;28;20045;-63
2021/12/07 12:03:57;;;;;;;14.18;3.45;;;5.70;99.90;;;;;;5006968;28;20046;-61
2021/12/07 12:06:22;;;;;;;12.55;2.20;;;5.70;99.90;;;;;;5013104;28;20558;-62
2021/12/07 12:08:50;;;;;;;15.30;2.72;;;5.60;99.90;;;;;;5021948;28;20048;-63
2021/12/07 12:11:33;;;;;;;18.70;2.88;;;5.60;99.90;;;;;;5023732;28;20038;-61
2021/12/07 12:14:28;;;;;;;12.15;3.10;;;5.70;99.90;;;;;;5019199;28;20060;-61
2021/12/07 12:17:31;;;;;;;13.18;2.75;;;5.70;99.90;;;;;;5017077;28;20120;-61
2021/12/07 12:20:46;;;;;;;19.33;2.58;;;5.60;99.90;;;;;;5006306;28;20497;-63
2021/12/07 12:23:40;;;;;;;20.73;3.10;;;5.70;99.90;;;;;;4988772;28;20046;-63
2021/12/07 12:26:08;;;;;;;11.65;2.75;;;5.70;99.90;;;;;;5026566;28;20041;-62
2021/12/07 12:28:39;;;;;;;6.28;1.63;;;5.60;99.90;;;;;;5028260;28;20030;-61
2021/12/07 12:31:08;;;;;;;11.50;2.00;;;5.70;99.90;;;;;;5028240;28;20574;-61
2021/12/07 12:33:46;;;;;;;9.95;1.67;;;5.60;99.90;;;;;;5025173;28;20033;-62
2021/12/07 12:36:11;;;;;;;10.23;2.70;;;5.70;99.90;;;;;;5026767;28;20037;-61
2021/12/07 12:38:42;;;;;;;12.45;2.65;;;5.60;99.90;;;;;;5025299;28;20099;-62
2021/12/07 12:41:09;;;;;;;13.73;1.35;;;5.60;99.90;;;;;;5026461;28;20042;-62
2021/12/07 12:44:09;;;;;;;7.15;1.60;;;5.70;99.90;;;;;;5019494;28;20117;-62
2021/12/07 12:46:37;;;;;;;7.50;2.28;;;5.60;99.90;;;;;;5027750;28;20053;-61
2021/12/07 12:49:10;;;;;;;15.40;2.30;;;5.60;99.90;;;;;;5024564;28;20831;-61
2021/12/07 12:51:50;;;;;;;11.60;1.98;;;5.50;99.90;;;;;;5027188;28;20116;-61
2021/12/07 12:54:18;;;;;;;7.15;2.63;;;5.60;99.90;;;;;;5025541;28;20076;-61
2021/12/07 12:56:44;;;;;;;8.90;1.48;;;5.50;99.90;;;;;;5027200;28;20495;-62
2021/12/07 12:59:11;;;;;;;10.65;2.22;;;5.50;99.90;;;;;;5023719;28;20087;-62
2021/12/07 13:01:42;;;;;;;8.93;2.05;;;5.50;99.90;;;;;;5019365;28;20033;-61
2021/12/07 13:04:22;;;;;;;9.35;2.08;;;5.40;99.90;;;;;;5024951;28;20192;-62
2021/12/07 13:06:55;;;;;;;7.65;2.30;;;5.40;99.90;;;;;;5024046;28;20480;-61
2021/12/07 13:09:25;;;;;;;8.60;2.13;;;5.40;99.90;;;;;;5028175;28;20044;-62
2021/12/07 13:12:18;;;;;;;12.43;2.50;;;5.40;99.90;;;;;;5023478;28;20874;-61
2021/12/07 13:14:55;;;;;;;11.00;1.60;;;5.40;99.90;;;;;;5024018;28;20672;-61
2021/12/07 13:17:42;;;;;;;10.88;1.58;;;5.40;99.90;;;;;;5026941;28;20034;-61
2021/12/07 13:20:34;;;;;;;17.05;1.83;;;5.50;99.90;;;;;;5027736;28;20041;-62
2021/12/07 13:23:11;;;;;;;12.35;2.40;;;5.50;99.90;;;;;;5026910;28;20740;-62
2021/12/07 13:25:45;;;;;;;8.38;1.88;;;5.50;99.90;;;;;;5021310;28;20038;-62
2021/12/07 13:28:16;;;;;;;5.60;1.83;;;5.50;99.90;;;;;;5026674;28;20632;-61
2021/12/07 13:30:50;;;;;;;9.93;1.85;;;5.50;99.90;;;;;;5027180;28;20044;-61
2021/12/07 13:33:36;;;;;;;5.75;1.45;;;5.50;99.90;;;;;;5026414;28;20033;-62
2021/12/07 13:36:40;;;;;;;14.55;1.92;;;5.40;99.90;;;;;;5021131;28;20106;-62
2021/12/07 13:39:06;;;;;;;10.82;2.50;;;5.50;99.90;;;;;;5020261;28;20099;-62
2021/12/07 13:41:31;;;;;;;10.32;1.50;;;5.50;99.90;;;;;;5026782;28;20412;-62
2021/12/07 13:43:57;;;;;;;11.35;2.40;;;5.50;99.90;;;;;;5028652;28;20069;-62
2021/12/07 13:46:27;;;;;;;4.78;1.55;;;5.60;99.90;;;;;;5025948;28;20073;-62
2021/12/07 13:49:08;;;;;;;7.13;1.73;;;5.50;99.90;;;;;;5023219;28;20041;-62
2021/12/07 13:51:34;;;;;;;;;;;5.50;99.90;;;;;;5024913;28;20079;-61
2021/12/07 13:54:01;;;;;;;5.43;1.90;;;5.50;99.90;;;;;;5022001;28;19943;-61
2021/12/07 13:56:31;;;;;;;10.65;1.95;;;5.50;99.90;;;;;;5027470;28;20591;-61
2021/12/07 13:59:05;;;;;;;4.80;1.40;;;5.50;99.90;;;;;;5026779;28;20033;-62
2021/12/07 14:01:33;;;;;;;9.68;1.83;;;5.50;99.90;;;;;;5028207;28;20505;-64
2021/12/07 14:04:00;;;;;;;16.98;2.67;;;5.50;99.90;;;;;;5025827;28;20104;-61
2021/12/07 14:06:27;;;;;;;15.68;2.17;;;5.50;99.90;;;;;;5027143;28;20038;-62
2021/12/07 14:08:52;;;;;;;17.55;2.08;;;5.40;99.90;;;;;;5024444;28;20048;-63
2021/12/07 14:11:19;;;;;;;6.07;2.13;;;5.30;99.90;;;;;;5024772;28;20136;-62
2021/12/07 14:13:49;;;;;;;18.20;3.90;;;5.30;99.90;;;;;;5022101;28;20033;-61
2021/12/07 14:16:16;;;;;;;9.98;2.00;;;5.30;99.90;;;;;;5020260;28;20088;-61
2021/12/07 14:18:44;;;;;;;14.98;2.97;;;5.30;99.90;;;;;;5021257;28;20029;-61
2021/12/07 14:21:11;;;;;;;7.03;2.00;;;5.20;99.90;;;;;;5025267;28;20643;-61
2021/12/07 14:23:45;;;;;;;12.23;2.75;;;5.20;99.90;;;;;;5023694;28;20076;-62
2021/12/07 14:26:20;;;;;;;14.77;3.78;;;5.20;99.90;;;;;;5027206;28;20128;-62
2021/12/07 14:29:04;;;;;;;11.40;1.52;;;5.20;99.90;;;;;;5027122;28;20072;-62
2021/12/07 14:31:38;;;;;;;11.48;2.42;;;5.20;99.90;;;;;;5022031;28;20116;-61
2021/12/07 14:34:11;;;;;;;9.35;2.15;;;5.30;99.90;;;;;;5019623;28;20042;-62
2021/12/07 14:36:46;;;;;;;10.48;1.65;;;5.20;99.90;;;;;;5025855;28;20022;-61
2021/12/07 14:39:18;;;;;;;4.38;1.25;;;5.20;99.90;;;;;;5025147;28;20038;-62